createdAt,value
2018-08-10T00:01:59.128Z,0.60
2018-08-10T00:04:30.591Z,0.60
2018-08-10T00:07:01.179Z,0.80
2018-08-10T00:09:30.756Z,0.67
2018-08-10T00:12:00.390Z,0.70
2018-08-10T00:14:32.195Z,0.60
2018-08-10T00:17:01.779Z,0.80
2018-08-10T00:19:34.868Z,0.60
2018-08-10T00:22:05.065Z,0.70
2018-08-10T00:24:34.545Z,1.13
2018-08-10T00:27:05.429Z,1.00
2018-08-10T00:29:34.879Z,1.10
2018-08-10T00:32:05.449Z,1.40
2018-08-10T00:34:35.000Z,1.37
2018-08-10T00:37:04.659Z,1.70
2018-08-10T00:39:34.478Z,1.47
2018-08-10T00:42:04.772Z,1.50
2018-08-10T00:44:35.194Z,1.50
2018-08-10T00:47:04.915Z,1.40
2018-08-10T00:49:34.615Z,1.70
2018-08-10T00:52:04.184Z,2.10
2018-08-10T00:54:33.648Z,1.60
2018-08-10T00:57:03.595Z,1.83
2018-08-10T00:59:33.115Z,1.80
2018-08-10T01:02:02.574Z,1.70
2018-08-10T01:04:33.008Z,1.60
2018-08-10T01:07:02.854Z,1.90
2018-08-10T01:09:32.297Z,1.80
2018-08-10T01:12:02.828Z,2.03
2018-08-10T01:14:34.724Z,1.87
2018-08-10T01:17:04.313Z,1.97
2018-08-10T01:19:33.831Z,2.37
2018-08-10T01:22:03.435Z,2.20
2018-08-10T01:24:33.332Z,1.90
2018-08-10T01:27:02.800Z,2.00
2018-08-10T01:29:32.263Z,1.73
2018-08-10T01:32:02.082Z,1.90
2018-08-10T01:34:32.859Z,1.70
2018-08-10T01:37:03.028Z,2.03
2018-08-10T01:39:33.208Z,2.10
2018-08-10T01:42:03.245Z,1.50
2018-08-10T01:44:33.063Z,1.80
2018-08-10T01:47:03.709Z,1.67
2018-08-10T01:49:33.187Z,1.50
2018-08-10T01:52:05.022Z,1.50
2018-08-10T01:54:34.474Z,1.30
2018-08-10T01:57:03.895Z,1.50
2018-08-10T01:59:33.333Z,1.33
2018-08-10T02:02:02.738Z,1.47
2018-08-10T02:04:32.592Z,1.47
2018-08-10T02:07:02.098Z,1.60
2018-08-10T02:09:31.758Z,1.23
2018-08-10T02:12:01.614Z,1.40
2018-08-10T02:14:31.148Z,1.13
2018-08-10T02:17:00.625Z,1.30
2018-08-10T02:19:35.685Z,1.40
2018-08-10T02:22:05.179Z,1.63
2018-08-10T02:24:34.830Z,1.80
2018-08-10T02:27:04.474Z,2.00
2018-08-10T02:29:35.313Z,2.00
2018-08-10T02:32:04.871Z,2.27
2018-08-10T02:34:34.329Z,1.73
2018-08-10T02:37:03.889Z,2.00
2018-08-10T02:39:33.654Z,2.40
2018-08-10T02:42:04.438Z,2.10
2018-08-10T02:44:34.024Z,2.47
2018-08-10T02:47:03.790Z,2.00
2018-08-10T02:49:33.302Z,2.40
2018-08-10T02:52:03.118Z,2.50
2018-08-10T02:54:32.623Z,2.77
2018-08-10T02:57:02.190Z,2.33
2018-08-10T02:59:31.684Z,2.57
2018-08-10T03:02:01.609Z,2.30
2018-08-10T03:04:31.100Z,2.63
2018-08-10T03:07:00.651Z,2.40
2018-08-10T03:09:30.203Z,3.20
2018-08-10T03:11:59.655Z,3.40
2018-08-10T03:14:29.080Z,2.60
2018-08-10T03:16:59.958Z,2.60
2018-08-10T03:19:29.513Z,2.50
2018-08-10T03:21:59.128Z,3.03
2018-08-10T03:24:36.869Z,2.80
2018-08-10T03:27:06.975Z,2.73
2018-08-10T03:29:36.807Z,2.33
2018-08-10T03:32:06.893Z,3.30
2018-08-10T03:34:37.723Z,2.83
2018-08-10T03:37:07.320Z,3.20
2018-08-10T03:39:36.796Z,2.73
2018-08-10T03:42:06.294Z,2.80
2018-08-10T03:44:35.811Z,2.50
2018-08-10T03:47:05.778Z,2.50
2018-08-10T03:49:35.648Z,3.03
2018-08-10T03:52:06.138Z,2.73
2018-08-10T03:54:35.581Z,2.63
2018-08-10T03:57:06.108Z,2.93
2018-08-10T03:59:37.816Z,2.90
2018-08-10T04:02:07.382Z,3.03
2018-08-10T04:04:36.883Z,2.90
2018-08-10T04:07:06.676Z,3.10
2018-08-10T04:09:36.422Z,2.83
2018-08-10T04:12:06.533Z,3.13
2018-08-10T04:14:36.026Z,3.00
2018-08-10T04:17:05.595Z,3.13
2018-08-10T04:19:35.056Z,2.80
2018-08-10T04:22:04.842Z,2.70
2018-08-10T04:24:34.317Z,2.80
2018-08-10T04:27:04.982Z,3.10
2018-08-10T04:29:34.700Z,2.60
2018-08-10T04:32:05.481Z,2.97
2018-08-10T04:34:34.936Z,2.63
2018-08-10T04:37:04.528Z,2.83
2018-08-10T04:39:34.072Z,2.43
2018-08-10T04:42:05.492Z,2.97
2018-08-10T04:44:34.937Z,2.60
2018-08-10T04:47:04.552Z,2.70
2018-08-10T04:49:34.525Z,2.30
2018-08-10T04:52:05.142Z,3.10
2018-08-10T04:54:34.704Z,2.57
2018-08-10T04:57:04.581Z,3.10
2018-08-10T04:59:34.331Z,2.87
2018-08-10T05:02:03.896Z,3.50
2018-08-10T05:04:33.499Z,3.80
2018-08-10T05:07:03.181Z,3.93
2018-08-10T05:09:33.911Z,3.77
2018-08-10T05:12:04.716Z,5.30
2018-08-10T05:14:34.211Z,4.80
2018-08-10T05:17:03.742Z,4.23
2018-08-10T05:19:33.263Z,4.00
2018-08-10T05:22:03.068Z,3.87
2018-08-10T05:24:38.431Z,4.03
2018-08-10T05:27:08.603Z,3.40
2018-08-10T05:29:38.132Z,3.27
2018-08-10T05:32:08.056Z,3.33
2018-08-10T05:34:41.836Z,3.10
2018-08-10T05:37:11.466Z,3.30
2018-08-10T05:39:41.023Z,3.37
2018-08-10T05:42:10.901Z,2.80
2018-08-10T05:44:43.226Z,3.30
2018-08-10T05:47:12.844Z,3.47
2018-08-10T05:49:43.410Z,2.93
2018-08-10T05:52:13.457Z,3.20
2018-08-10T05:54:42.920Z,3.23
2018-08-10T05:57:12.474Z,3.27
2018-08-10T05:59:42.057Z,3.30
2018-08-10T06:02:11.899Z,3.17
2018-08-10T06:04:41.713Z,3.00
2018-08-10T06:07:11.481Z,3.20
2018-08-10T06:09:41.818Z,3.33
2018-08-10T06:12:11.414Z,3.00
2018-08-10T06:14:40.977Z,3.43
2018-08-10T06:17:10.487Z,3.80
2018-08-10T06:19:49.861Z,3.20
2018-08-10T06:22:20.947Z,3.43
2018-08-10T06:24:50.416Z,3.00
2018-08-10T06:27:20.122Z,3.53
2018-08-10T06:29:49.843Z,3.43
2018-08-10T06:32:19.314Z,3.37
2018-08-10T06:34:48.752Z,3.13
2018-08-10T06:37:18.688Z,3.67
2018-08-10T06:39:52.452Z,3.43
2018-08-10T06:42:22.062Z,3.33
2018-08-10T06:44:51.549Z,3.27
2018-08-10T06:47:27.576Z,3.40
2018-08-10T06:49:57.088Z,3.37
2018-08-10T06:52:26.573Z,3.37
2018-08-10T06:54:56.426Z,3.20
2018-08-10T06:57:26.427Z,3.20
2018-08-10T06:59:56.291Z,2.60
2018-08-10T07:03:13.721Z,2.87
2018-08-10T07:05:43.801Z,3.20
2018-08-10T07:08:15.863Z,2.90
2018-08-10T07:10:47.352Z,2.53
2018-08-10T07:13:18.989Z,2.93
2018-08-10T07:15:48.574Z,2.63
2018-08-10T07:18:18.148Z,2.60
2018-08-10T07:20:47.750Z,2.37
2018-08-10T07:23:18.502Z,2.50
2018-08-10T07:25:48.398Z,2.03
2018-08-10T07:28:18.211Z,1.80
2018-08-10T07:30:47.963Z,1.83
2018-08-10T07:33:18.041Z,1.87
2018-08-10T07:35:48.946Z,1.73
2018-08-10T07:38:18.858Z,1.83
2018-08-10T07:40:48.495Z,1.93
2018-08-10T07:43:20.350Z,1.93
2018-08-10T07:45:49.907Z,1.67
2018-08-10T07:48:19.427Z,1.90
2018-08-10T07:50:52.427Z,1.53
2018-08-10T07:53:22.027Z,1.70
2018-08-10T07:55:51.896Z,1.53
2018-08-10T07:58:22.879Z,2.40
2018-08-10T08:00:52.538Z,2.30
2018-08-10T08:03:22.380Z,2.20
2018-08-10T08:05:51.844Z,2.37
2018-08-10T08:08:23.571Z,2.80
2018-08-10T08:10:53.938Z,2.73
2018-08-10T08:13:23.591Z,3.13
2018-08-10T08:15:55.541Z,2.93
2018-08-10T08:18:25.378Z,2.57
2018-08-10T08:21:04.418Z,2.70
2018-08-10T08:23:34.071Z,2.37
2018-08-10T08:26:04.302Z,3.10
2018-08-10T08:28:35.412Z,2.70
2018-08-10T08:31:06.111Z,2.83
2018-08-10T08:33:45.587Z,2.50
2018-08-10T08:36:15.309Z,2.53
2018-08-10T08:39:25.638Z,2.43
2018-08-10T08:41:56.762Z,2.50
2018-08-10T08:45:40.077Z,2.50
2018-08-10T08:48:09.706Z,2.33
2018-08-10T08:50:41.990Z,2.77
2018-08-10T08:53:11.902Z,2.50
2018-08-10T08:55:45.843Z,2.13
2018-08-10T08:58:15.503Z,2.53
2018-08-10T09:00:45.498Z,2.27
2018-08-10T09:03:27.009Z,2.10
2018-08-10T09:05:58.062Z,1.97
2018-08-10T09:08:32.806Z,2.43
2018-08-10T09:11:03.963Z,2.00
2018-08-10T09:15:43.170Z,2.10
2018-08-10T09:18:12.952Z,1.77
2018-08-10T09:20:42.765Z,1.93
2018-08-10T09:23:13.535Z,2.53
2018-08-10T09:25:50.557Z,1.97
2018-08-10T09:28:21.463Z,1.80
2018-08-10T09:30:51.498Z,1.97
2018-08-10T09:33:25.988Z,2.10
2018-08-10T09:35:55.842Z,2.10
2018-08-10T09:38:26.153Z,2.50
2018-08-10T09:40:56.613Z,2.70
2018-08-10T09:43:27.379Z,2.67
2018-08-10T09:45:56.952Z,2.17
2018-08-10T09:48:26.593Z,2.00
2018-08-10T09:50:58.556Z,1.63
2018-08-10T09:53:28.186Z,1.43
2018-08-10T09:55:57.741Z,1.80
2018-08-10T09:58:28.573Z,1.90
2018-08-10T10:01:02.323Z,1.50
2018-08-10T10:03:31.967Z,1.60
2018-08-10T10:06:03.395Z,2.07
2018-08-10T10:08:33.914Z,2.17
2018-08-10T10:11:03.670Z,2.40
2018-08-10T10:13:33.247Z,1.93
2018-08-10T10:16:02.871Z,1.10
2018-08-10T10:18:32.615Z,1.33
2018-08-10T10:21:02.569Z,1.30
2018-08-10T10:23:32.910Z,1.70
2018-08-10T10:26:02.603Z,2.13
2018-08-10T10:28:32.907Z,1.07
2018-08-10T10:31:02.955Z,1.80
2018-08-10T10:33:33.977Z,1.53
2018-08-10T10:36:04.766Z,1.30
2018-08-10T10:38:36.472Z,1.43
2018-08-10T10:41:07.008Z,1.37
2018-08-10T10:43:36.726Z,1.17
2018-08-10T10:46:07.706Z,1.57
2018-08-10T10:48:37.320Z,1.73
2018-08-10T10:51:07.431Z,1.50
2018-08-10T10:53:37.796Z,1.50
2018-08-10T10:56:07.696Z,1.83
2018-08-10T10:58:37.499Z,1.30
2018-08-10T11:01:08.525Z,1.40
2018-08-10T11:03:38.266Z,1.47
2018-08-10T11:06:07.910Z,1.30
2018-08-10T11:08:37.792Z,1.53
2018-08-10T11:11:10.481Z,1.40
2018-08-10T11:13:41.325Z,0.83
2018-08-10T11:16:11.224Z,1.23
2018-08-10T11:18:41.017Z,1.00
2018-08-10T11:21:11.700Z,1.23
2018-08-10T11:23:42.225Z,1.10
2018-08-10T11:26:14.641Z,1.23
2018-08-10T11:28:49.361Z,1.10
2018-08-10T11:31:22.186Z,1.07
2018-08-10T11:33:55.535Z,1.13
2018-08-10T11:36:35.035Z,1.23
2018-08-10T11:39:10.581Z,1.60
2018-08-10T11:41:42.433Z,1.43
2018-08-10T11:44:12.267Z,1.20
2018-08-10T11:46:42.197Z,1.00
2018-08-10T11:49:25.885Z,1.17
2018-08-10T11:51:56.387Z,1.10
2018-08-10T11:54:28.748Z,1.10
2018-08-10T11:57:03.206Z,1.00
2018-08-10T11:59:33.032Z,0.90
2018-08-10T12:02:03.457Z,1.17
2018-08-10T12:04:34.590Z,1.10
2018-08-10T12:07:19.931Z,0.80
2018-08-10T12:09:52.189Z,1.30
2018-08-10T12:12:24.009Z,1.37
2018-08-10T12:14:54.441Z,1.00
2018-08-10T12:17:25.330Z,0.70
2018-08-10T12:19:55.766Z,0.90
2018-08-10T12:22:26.403Z,1.10
2018-08-10T12:25:03.315Z,0.97
2018-08-10T12:27:32.957Z,0.90
2018-08-10T12:30:08.012Z,0.90
2018-08-10T12:32:40.302Z,1.33
2018-08-10T12:35:17.458Z,1.10
2018-08-10T12:37:47.315Z,1.20
2018-08-10T12:40:17.225Z,1.13
2018-08-10T12:42:51.668Z,1.10
2018-08-10T12:45:29.496Z,0.80
2018-08-10T12:48:01.952Z,1.00
2018-08-10T12:50:32.868Z,0.73
2018-08-10T12:53:03.937Z,1.00
2018-08-10T12:55:42.224Z,0.80
2018-08-10T12:58:13.320Z,0.83
2018-08-10T13:00:43.336Z,1.10
2018-08-10T13:03:26.679Z,0.90
2018-08-10T13:05:56.505Z,1.47
2018-08-10T13:08:37.281Z,1.23
2018-08-10T13:11:08.437Z,1.00
2018-08-10T13:13:57.139Z,0.90
2018-08-10T13:16:27.952Z,1.53
2018-08-10T13:27:57.690Z,1.20
2018-08-10T13:30:44.091Z,1.10
2018-08-10T13:33:15.939Z,1.00
2018-08-10T13:39:29.721Z,1.50
2018-08-10T13:42:11.541Z,1.40
2018-08-10T13:44:45.321Z,1.33
2018-08-10T13:47:32.917Z,1.10
2018-08-10T13:50:05.535Z,1.40
2018-08-10T13:52:41.425Z,1.00
2018-08-10T13:55:20.887Z,1.00
2018-08-10T13:58:02.281Z,1.20
2018-08-10T14:00:38.198Z,1.10
2018-08-10T14:03:13.545Z,1.73
2018-08-10T14:05:55.048Z,1.10
2018-08-10T14:08:42.259Z,0.90
2018-08-10T14:13:48.753Z,1.20
2018-08-10T14:16:26.510Z,1.00
2018-08-10T14:19:04.106Z,0.97
2018-08-10T14:21:36.909Z,1.17
2018-08-10T14:29:00.605Z,1.10
2018-08-10T14:31:47.989Z,1.00
2018-08-10T14:37:33.492Z,1.23
2018-08-10T14:40:07.535Z,1.37
2018-08-10T14:42:48.451Z,1.30
2018-08-10T14:45:25.469Z,1.30
2018-08-10T14:48:00.521Z,1.50
2018-08-10T14:50:32.155Z,1.20
2018-08-10T14:53:02.148Z,1.20
2018-08-10T14:55:40.411Z,1.17
2018-08-10T14:58:14.890Z,1.20
2018-08-10T15:00:52.946Z,1.00
2018-08-10T15:03:25.474Z,0.90
2018-08-10T15:05:55.516Z,1.20
2018-08-10T15:08:37.867Z,1.33
2018-08-10T15:11:10.465Z,1.10
2018-08-10T15:13:41.290Z,1.30
2018-08-10T15:16:13.808Z,1.20
2018-08-10T15:18:45.426Z,0.97
2018-08-10T15:21:16.556Z,1.13
2018-08-10T15:23:48.669Z,1.07
2018-08-10T15:26:22.411Z,1.00
2018-08-10T15:29:11.447Z,0.90
2018-08-10T15:31:45.433Z,0.90
2018-08-10T15:34:18.875Z,1.00
2018-08-10T15:36:52.845Z,1.43
2018-08-10T15:39:23.610Z,1.13
2018-08-10T15:41:57.810Z,1.00
2018-08-10T15:44:30.849Z,0.80
2018-08-10T15:47:39.361Z,1.13
2018-08-10T15:50:19.646Z,0.70
2018-08-10T15:53:09.021Z,0.90
2018-08-10T15:55:39.836Z,1.00
2018-08-10T15:58:10.307Z,1.07
2018-08-10T16:00:48.630Z,0.80
2018-08-10T16:03:19.304Z,0.83
2018-08-10T16:05:52.796Z,0.90
2018-08-10T16:08:33.691Z,1.10
2018-08-10T16:11:16.459Z,1.00
2018-08-10T16:13:51.889Z,0.87
2018-08-10T16:16:22.484Z,1.20
2018-08-10T16:18:53.561Z,0.70
2018-08-10T16:21:26.964Z,1.10
2018-08-10T16:24:04.468Z,0.73
2018-08-10T16:26:34.287Z,0.97
2018-08-10T16:29:12.375Z,0.80
2018-08-10T16:31:45.356Z,0.80
2018-08-10T16:34:16.950Z,0.80
2018-08-10T16:36:47.561Z,0.80
2018-08-10T16:39:18.531Z,0.80
2018-08-10T16:41:48.054Z,0.73
2018-08-10T16:44:18.574Z,0.80
2018-08-10T16:46:50.541Z,0.90
2018-08-10T16:49:21.563Z,1.17
2018-08-10T16:51:58.419Z,1.03
2018-08-10T16:54:28.517Z,1.23
2018-08-10T16:56:59.623Z,1.03
2018-08-10T16:59:29.675Z,1.20
2018-08-10T17:02:00.075Z,1.40
2018-08-10T17:04:32.625Z,1.40
2018-08-10T17:07:06.443Z,1.03
2018-08-10T17:09:37.476Z,0.70
2018-08-10T17:12:13.270Z,0.90
2018-08-10T17:14:44.307Z,0.90
2018-08-10T17:17:15.409Z,0.70
2018-08-10T17:19:46.299Z,0.80
2018-08-10T17:22:19.241Z,0.60
2018-08-10T17:24:52.069Z,1.00
2018-08-10T17:27:26.130Z,0.93
2018-08-10T17:29:57.786Z,0.70
2018-08-10T17:32:30.211Z,0.70
2018-08-10T17:35:01.086Z,0.70
2018-08-10T17:37:33.399Z,0.90
2018-08-10T17:40:04.501Z,1.00
2018-08-10T17:42:38.571Z,0.70
2018-08-10T17:45:14.041Z,0.87
2018-08-10T17:47:45.341Z,0.90
2018-08-10T17:50:20.501Z,0.70
2018-08-10T17:52:54.795Z,0.90
2018-08-10T17:55:26.040Z,0.80
2018-08-10T17:57:57.656Z,0.73
2018-08-10T18:00:30.310Z,1.10
2018-08-10T18:03:05.265Z,0.90
2018-08-10T18:05:36.627Z,0.80
2018-08-10T18:08:08.483Z,0.60
2018-08-10T18:10:40.514Z,0.80
2018-08-10T18:16:16.306Z,1.00
2018-08-10T18:18:48.045Z,1.10
2018-08-10T18:21:20.070Z,0.90
2018-08-10T18:23:51.408Z,1.10
2018-08-10T18:26:23.742Z,1.20
2018-08-10T18:28:54.186Z,0.93
2018-08-10T18:31:28.998Z,1.00
2018-08-10T18:34:00.349Z,1.13
2018-08-10T18:36:31.484Z,0.60
2018-08-10T18:39:09.454Z,0.87
2018-08-10T18:41:41.162Z,1.13
2018-08-10T18:44:16.400Z,0.80
2018-08-10T18:46:49.291Z,0.80
2018-08-10T18:49:20.392Z,0.80
2018-08-10T18:51:52.776Z,1.10
2018-08-10T18:54:23.471Z,1.13
2018-08-10T18:56:53.669Z,1.33
2018-08-10T18:59:24.391Z,1.20
2018-08-10T19:01:55.865Z,1.00
2018-08-10T19:04:28.821Z,0.97
2018-08-10T19:07:06.294Z,1.37
2018-08-10T19:09:37.790Z,0.80
2018-08-10T19:12:08.479Z,1.10
2018-08-10T19:14:42.960Z,0.67
2018-08-10T19:17:14.901Z,0.97
2018-08-10T19:19:46.745Z,1.00
2018-08-10T19:22:31.656Z,1.00
2018-08-10T19:25:06.085Z,0.83
2018-08-10T19:27:38.662Z,4.70
2018-08-10T19:30:16.396Z,1.40
2018-08-10T19:32:51.697Z,1.40
2018-08-10T19:35:22.498Z,1.77
2018-08-10T19:37:54.169Z,1.30
2018-08-10T19:40:26.069Z,1.10
2018-08-10T19:43:03.942Z,1.10
2018-08-10T19:45:46.840Z,1.17
2018-08-10T19:48:17.383Z,0.90
2018-08-10T19:51:02.599Z,0.83
2018-08-10T19:53:46.892Z,0.87
2018-08-10T19:56:27.229Z,0.90
2018-08-10T19:59:19.399Z,0.90
2018-08-10T20:02:06.590Z,0.90
2018-08-10T20:04:45.853Z,0.93
2018-08-10T20:07:28.766Z,0.93
2018-08-10T20:10:06.102Z,0.80
2018-08-10T20:12:51.176Z,1.00
2018-08-10T20:15:32.195Z,1.37
2018-08-10T20:18:18.180Z,1.20
2018-08-10T20:20:59.270Z,1.10
2018-08-10T20:23:29.658Z,1.47
2018-08-10T20:26:05.155Z,1.10
2018-08-10T20:28:36.449Z,1.07
2018-08-10T20:31:06.492Z,1.10
2018-08-10T20:33:43.660Z,1.20
2018-08-10T20:36:15.318Z,1.03
2018-08-10T20:38:57.960Z,1.40
2018-08-10T20:47:22.703Z,1.40
2018-08-10T20:49:52.950Z,1.73
2018-08-10T20:52:27.161Z,1.10
2018-08-10T20:55:02.151Z,1.13
2018-08-10T20:57:34.045Z,1.27
2018-08-10T21:00:16.618Z,1.10
2018-08-10T21:08:40.271Z,0.90
2018-08-10T21:11:15.827Z,1.10
2018-08-10T21:13:48.667Z,1.10
2018-08-10T21:16:27.994Z,1.00
2018-08-10T21:19:01.937Z,1.07
2018-08-10T21:24:22.909Z,0.90
2018-08-10T21:26:55.187Z,0.77
2018-08-10T21:29:29.798Z,0.90
2018-08-10T21:32:00.877Z,0.97
2018-08-10T21:37:13.118Z,1.13
2018-08-10T21:39:47.974Z,0.90
2018-08-10T21:42:19.264Z,0.87
2018-08-10T21:44:55.571Z,0.80
2018-08-10T21:47:29.924Z,0.93
2018-08-10T21:50:02.895Z,0.93
2018-08-10T21:52:38.384Z,0.80
2018-08-10T21:55:11.198Z,1.20
2018-08-10T21:57:43.842Z,1.30
2018-08-10T22:01:11.530Z,0.90
2018-08-10T22:03:44.928Z,1.30
2018-08-10T22:06:20.619Z,1.23
2018-08-10T22:08:56.790Z,1.30
2018-08-10T22:11:30.989Z,1.10
2018-08-10T22:14:08.533Z,0.93
2018-08-10T22:16:44.493Z,1.00
2018-08-10T22:19:21.767Z,0.93
2018-08-10T22:21:54.707Z,1.00
2018-08-10T22:24:26.914Z,1.03
2018-08-10T22:27:09.634Z,0.90
2018-08-10T22:29:48.080Z,1.20
2018-08-10T22:32:25.473Z,1.00
2018-08-10T22:34:56.998Z,1.20
2018-08-10T22:37:30.345Z,1.00
2018-08-10T22:40:04.469Z,1.53
2018-08-10T22:42:38.618Z,1.00
2018-08-10T22:45:11.973Z,0.70
2018-08-10T22:50:24.414Z,1.03
2018-08-10T22:55:46.798Z,1.30
2018-08-10T22:58:23.948Z,1.40
2018-08-10T23:00:55.438Z,0.90
2018-08-10T23:03:29.388Z,1.30
2018-08-10T23:17:12.000Z,1.20
2018-08-10T23:19:41.592Z,1.30
2018-08-10T23:22:11.354Z,1.10
2018-08-10T23:24:40.837Z,1.10
2018-08-10T23:27:11.074Z,1.30
2018-08-10T23:29:40.674Z,1.40
2018-08-10T23:32:10.677Z,1.30
2018-08-10T23:34:40.566Z,1.60
2018-08-10T23:37:14.927Z,1.40
2018-08-10T23:42:41.089Z,1.30
2018-08-10T23:45:28.519Z,1.40
2018-08-10T23:47:59.987Z,1.43
2018-08-10T23:50:31.575Z,1.43
2018-08-10T23:53:01.532Z,1.33
2018-08-10T23:55:31.552Z,1.10
2018-08-10T23:58:24.605Z,1.27
